createdAt,value
2022-08-24T00:00:50.125Z,19.53
2022-08-24T00:04:53.461Z,19.48
2022-08-24T00:08:57.869Z,19.42
2022-08-24T00:12:59.951Z,19.35
2022-08-24T00:17:02.357Z,19.29
2022-08-24T00:21:05.624Z,19.21
2022-08-24T00:25:10.188Z,19.10
2022-08-24T00:29:14.773Z,19.03
2022-08-24T00:33:17.039Z,18.97
2022-08-24T00:37:19.156Z,18.90
2022-08-24T00:41:22.507Z,18.72
2022-08-24T00:45:24.903Z,18.67
2022-08-24T00:49:26.920Z,18.77
2022-08-24T00:53:35.367Z,18.80
2022-08-24T00:57:43.883Z,18.82
2022-08-24T01:01:47.929Z,18.87
2022-08-24T01:05:50.173Z,18.82
2022-08-24T01:09:54.508Z,18.80
2022-08-24T01:13:56.808Z,18.81
2022-08-24T01:18:19.212Z,18.82
2022-08-24T01:22:58.894Z,18.89
2022-08-24T01:27:02.329Z,18.97
2022-08-24T01:31:04.730Z,19.02
2022-08-24T01:35:07.839Z,19.12
2022-08-24T01:39:34.020Z,19.21
2022-08-24T01:43:37.412Z,19.29
2022-08-24T01:47:42.014Z,19.33
2022-08-24T01:51:45.748Z,19.32
2022-08-24T01:55:48.842Z,19.32
2022-08-24T01:59:51.962Z,19.37
2022-08-24T02:03:54.076Z,19.32
2022-08-24T02:07:58.284Z,19.27
2022-08-24T02:12:00.553Z,19.25
2022-08-24T02:16:03.062Z,19.17
2022-08-24T02:20:08.977Z,19.13
2022-08-24T02:24:11.831Z,19.07
2022-08-24T02:28:14.188Z,18.96
2022-08-24T02:32:16.293Z,18.91
2022-08-24T02:36:25.929Z,18.84
2022-08-24T02:40:32.309Z,18.77
2022-08-24T02:44:35.230Z,18.64
2022-08-24T02:48:37.307Z,18.54
2022-08-24T02:52:40.151Z,18.53
2022-08-24T02:56:42.938Z,18.51
2022-08-24T03:00:47.319Z,18.50
2022-08-24T03:04:52.165Z,18.48
2022-08-24T03:08:57.064Z,18.46
2022-08-24T03:13:01.413Z,18.46
2022-08-24T03:17:04.990Z,18.47
2022-08-24T03:21:07.261Z,18.47
2022-08-24T03:25:16.673Z,18.43
2022-08-24T03:29:19.091Z,18.44
2022-08-24T03:33:21.849Z,18.44
2022-08-24T03:37:24.087Z,18.41
2022-08-24T03:41:27.382Z,18.41
2022-08-24T03:45:30.021Z,18.41
2022-08-24T03:49:32.857Z,18.40
2022-08-24T03:53:35.522Z,18.41
2022-08-24T03:57:42.078Z,18.38
2022-08-24T04:01:44.187Z,18.31
2022-08-24T04:05:46.292Z,18.24
2022-08-24T04:09:50.424Z,18.14
2022-08-24T04:13:56.623Z,18.12
2022-08-24T04:17:58.894Z,18.14
2022-08-24T04:22:01.117Z,18.14
2022-08-24T04:26:05.037Z,18.14
2022-08-24T04:30:07.805Z,18.15
2022-08-24T04:34:24.051Z,18.18
2022-08-24T04:38:26.901Z,18.25
2022-08-24T04:42:49.363Z,18.36
2022-08-24T04:46:51.417Z,18.47
2022-08-24T04:50:54.906Z,18.55
2022-08-24T04:54:57.349Z,18.64
2022-08-24T04:59:01.749Z,18.77
2022-08-24T05:03:04.385Z,18.78
2022-08-24T05:07:06.723Z,18.81
2022-08-24T05:11:09.541Z,18.84
2022-08-24T05:15:12.985Z,18.84
2022-08-24T05:19:17.678Z,18.99
2022-08-24T05:23:19.762Z,19.20
2022-08-24T05:27:22.653Z,19.41
2022-08-24T05:31:30.529Z,19.66
2022-08-24T05:35:39.443Z,19.97
2022-08-24T05:39:45.879Z,20.37
2022-08-24T05:43:49.112Z,20.46
2022-08-24T05:47:51.283Z,20.84
2022-08-24T05:52:11.911Z,23.39
2022-08-24T05:56:17.191Z,26.20
2022-08-24T06:00:19.529Z,28.01
2022-08-24T06:04:24.997Z,27.89
2022-08-24T06:08:28.506Z,27.81
2022-08-24T06:12:33.257Z,28.28
2022-08-24T06:16:37.215Z,28.08
2022-08-24T06:20:42.424Z,27.94
2022-08-24T06:25:03.467Z,29.23
2022-08-24T06:29:07.628Z,30.33
2022-08-24T06:33:15.498Z,31.16
2022-08-24T06:37:19.396Z,32.34
2022-08-24T06:41:23.395Z,32.77
2022-08-24T06:45:25.629Z,33.37
2022-08-24T06:49:27.795Z,33.43
2022-08-24T06:53:30.358Z,33.92
2022-08-24T06:57:33.366Z,34.32
2022-08-24T07:01:35.705Z,34.19
2022-08-24T07:05:37.864Z,31.42
2022-08-24T07:09:53.492Z,29.38
2022-08-24T07:13:55.547Z,28.12
2022-08-24T07:17:59.201Z,27.59
2022-08-24T07:22:01.324Z,27.21
2022-08-24T07:26:21.478Z,26.96
2022-08-24T07:30:27.700Z,26.82
2022-08-24T07:34:32.807Z,26.74
2022-08-24T07:38:35.715Z,26.67
2022-08-24T07:42:40.068Z,26.67
2022-08-24T07:46:42.372Z,26.59
2022-08-24T07:50:45.713Z,26.50
2022-08-24T07:54:49.584Z,26.55
2022-08-24T07:58:54.339Z,26.58
2022-08-24T08:02:57.532Z,26.61
2022-08-24T08:07:01.618Z,26.63
2022-08-24T08:11:07.076Z,26.74
2022-08-24T08:15:10.777Z,26.85
2022-08-24T08:19:17.810Z,26.88
2022-08-24T08:23:40.395Z,26.91
2022-08-24T08:27:52.477Z,26.96
2022-08-24T08:31:55.853Z,27.00
2022-08-24T08:36:09.286Z,27.03
2022-08-24T08:40:43.842Z,27.13
2022-08-24T08:45:18.547Z,27.29
2022-08-24T08:49:58.397Z,27.40
2022-08-24T08:54:12.230Z,27.43
2022-08-24T08:58:32.934Z,27.44
2022-08-24T09:02:58.188Z,27.47
2022-08-24T09:07:14.113Z,27.55
2022-08-24T09:11:32.303Z,27.65
2022-08-24T09:15:57.836Z,27.73
2022-08-24T09:20:12.770Z,27.83
2022-08-24T09:24:28.418Z,27.93
2022-08-24T09:28:48.134Z,28.04
2022-08-24T09:32:57.188Z,28.03
2022-08-24T09:37:29.467Z,28.11
2022-08-24T09:41:51.382Z,28.33
2022-08-24T09:46:26.260Z,28.60
2022-08-24T09:50:56.546Z,28.79
2022-08-24T09:55:26.777Z,28.95
2022-08-24T09:59:52.902Z,29.12
2022-08-24T10:04:03.968Z,29.26
2022-08-24T10:08:34.163Z,29.35
2022-08-24T10:12:39.657Z,29.47
2022-08-24T10:16:58.909Z,29.54
2022-08-24T10:21:19.130Z,29.60
2022-08-24T10:25:36.063Z,29.65
2022-08-24T10:29:55.434Z,29.73
2022-08-24T10:34:06.613Z,29.73
2022-08-24T10:38:42.437Z,29.74
2022-08-24T10:43:35.947Z,29.77
2022-08-24T10:48:01.265Z,29.78
2022-08-24T10:52:16.894Z,29.80
2022-08-24T10:56:40.742Z,29.77
2022-08-24T11:00:42.997Z,29.74
2022-08-24T11:04:56.127Z,29.80
2022-08-24T11:09:08.600Z,29.82
2022-08-24T11:13:27.228Z,29.83
2022-08-24T11:17:31.996Z,29.83
2022-08-24T11:21:54.887Z,29.86
2022-08-24T11:26:12.707Z,29.84
2022-08-24T11:30:17.501Z,29.92
2022-08-24T11:34:33.082Z,29.95
2022-08-24T11:38:35.133Z,29.99
2022-08-24T11:43:14.142Z,30.09
2022-08-24T11:47:42.421Z,30.20
2022-08-24T11:51:44.459Z,30.31
2022-08-24T11:56:00.343Z,30.37
2022-08-24T12:00:18.589Z,30.48
2022-08-24T12:04:32.175Z,30.55
2022-08-24T12:08:41.830Z,30.66
2022-08-24T12:12:50.757Z,30.79
2022-08-24T12:17:28.017Z,30.77
2022-08-24T12:21:36.898Z,30.88
2022-08-24T12:25:57.647Z,30.99
2022-08-24T12:30:15.033Z,30.98
2022-08-24T12:34:37.320Z,30.85
2022-08-24T12:38:45.257Z,30.96
2022-08-24T12:42:56.057Z,31.08
2022-08-24T12:46:58.633Z,31.22
2022-08-24T12:51:22.720Z,31.46
2022-08-24T12:55:30.621Z,31.47
2022-08-24T12:59:45.436Z,31.53
2022-08-24T13:04:02.353Z,31.57
2022-08-24T13:08:17.628Z,31.53
2022-08-24T13:12:38.088Z,31.39
2022-08-24T13:17:07.515Z,31.46
2022-08-24T13:21:16.757Z,31.53
2022-08-24T13:25:25.880Z,31.65
2022-08-24T13:29:33.381Z,31.63
2022-08-24T13:33:44.818Z,31.49
2022-08-24T13:38:25.661Z,31.36
2022-08-24T13:42:52.252Z,31.50
2022-08-24T13:47:44.920Z,31.80
2022-08-24T13:52:19.606Z,31.81
2022-08-24T13:56:26.915Z,31.89
2022-08-24T14:00:49.427Z,31.74
2022-08-24T14:05:24.127Z,31.82
2022-08-24T14:09:36.126Z,31.86
2022-08-24T14:14:01.090Z,31.96
2022-08-24T14:18:44.518Z,32.14
2022-08-24T14:23:40.527Z,32.26
2022-08-24T14:27:50.541Z,32.14
2022-08-24T14:32:00.051Z,32.35
2022-08-24T14:36:21.538Z,32.20
2022-08-24T14:40:32.940Z,32.19
2022-08-24T14:44:57.338Z,32.37
2022-08-24T14:49:16.536Z,32.54
2022-08-24T14:53:47.021Z,32.64
2022-08-24T14:58:12.866Z,32.66
2022-08-24T15:02:51.586Z,32.50
2022-08-24T15:06:58.969Z,32.48
2022-08-24T15:11:13.384Z,32.51
2022-08-24T15:15:31.597Z,32.59
2022-08-24T15:20:03.319Z,32.59
2022-08-24T15:24:16.486Z,32.52
2022-08-24T15:28:24.031Z,32.55
2022-08-24T15:32:49.155Z,32.56
2022-08-24T15:37:01.561Z,32.48
2022-08-24T15:41:13.127Z,32.49
2022-08-24T15:45:15.240Z,32.38
2022-08-24T15:49:25.225Z,32.32
2022-08-24T15:53:41.589Z,32.21
2022-08-24T15:57:44.494Z,32.05
2022-08-24T16:02:14.417Z,31.83
2022-08-24T16:06:31.257Z,31.70
2022-08-24T16:10:39.325Z,31.58
2022-08-24T16:14:48.773Z,31.52
2022-08-24T16:18:58.334Z,31.46
2022-08-24T16:23:10.752Z,31.43
2022-08-24T16:27:16.498Z,31.40
2022-08-24T16:31:41.605Z,31.27
2022-08-24T16:35:43.670Z,31.23
2022-08-24T16:39:47.147Z,31.20
2022-08-24T16:43:49.510Z,31.20
2022-08-24T16:47:51.581Z,31.18
2022-08-24T16:51:53.661Z,31.10
2022-08-24T16:55:55.874Z,31.00
2022-08-24T16:59:58.299Z,30.86
2022-08-24T17:04:00.425Z,30.74
2022-08-24T17:08:02.909Z,30.70
2022-08-24T17:12:05.667Z,30.61
2022-08-24T17:16:10.299Z,30.59
2022-08-24T17:20:12.401Z,30.45
2022-08-24T17:24:17.655Z,30.34
2022-08-24T17:28:20.173Z,30.22
2022-08-24T17:32:22.210Z,30.13
2022-08-24T17:36:25.072Z,30.07
2022-08-24T17:40:29.938Z,29.98
2022-08-24T17:44:33.523Z,29.88
2022-08-24T17:48:35.790Z,29.79
2022-08-24T17:52:38.911Z,29.70
2022-08-24T17:56:41.309Z,29.61
2022-08-24T18:00:44.857Z,29.52
2022-08-24T18:04:47.206Z,29.38
2022-08-24T18:08:54.306Z,29.23
2022-08-24T18:13:00.252Z,29.07
2022-08-24T18:17:06.487Z,28.93
2022-08-24T18:21:08.662Z,28.75
2022-08-24T18:25:13.088Z,28.62
2022-08-24T18:29:18.325Z,28.49
2022-08-24T18:33:22.961Z,28.34
2022-08-24T18:37:25.121Z,28.19
2022-08-24T18:41:35.673Z,28.09
2022-08-24T18:45:38.556Z,27.95
2022-08-24T18:49:40.775Z,27.84
2022-08-24T18:53:43.287Z,27.73
2022-08-24T18:57:45.316Z,27.63
2022-08-24T19:02:08.871Z,27.53
2022-08-24T19:06:11.104Z,27.38
2022-08-24T19:10:16.550Z,27.29
2022-08-24T19:14:18.623Z,27.20
2022-08-24T19:18:21.807Z,27.13
2022-08-24T19:22:25.051Z,27.05
2022-08-24T19:26:27.136Z,26.95
2022-08-24T19:30:29.219Z,26.86
2022-08-24T19:34:31.511Z,26.80
2022-08-24T19:38:34.397Z,26.74
2022-08-24T19:42:36.566Z,26.67
2022-08-24T19:46:39.117Z,26.60
2022-08-24T19:50:41.578Z,26.50
2022-08-24T19:54:45.737Z,26.44
2022-08-24T19:58:52.819Z,26.38
2022-08-24T20:02:56.887Z,26.29
2022-08-24T20:06:58.957Z,26.22
2022-08-24T20:11:01.092Z,26.17
2022-08-24T20:15:04.451Z,26.12
2022-08-24T20:19:06.681Z,26.06
2022-08-24T20:23:08.837Z,26.02
2022-08-24T20:27:19.117Z,25.94
2022-08-24T20:31:28.011Z,25.72
2022-08-24T20:35:30.934Z,25.48
2022-08-24T20:39:34.455Z,25.31
2022-08-24T20:43:36.499Z,25.20
2022-08-24T20:47:45.680Z,25.13
2022-08-24T20:51:47.752Z,24.97
2022-08-24T20:55:50.015Z,24.77
2022-08-24T20:59:52.052Z,24.65
2022-08-24T21:03:54.177Z,24.55
2022-08-24T21:07:57.934Z,24.42
2022-08-24T21:12:01.486Z,24.29
2022-08-24T21:16:04.518Z,24.16
2022-08-24T21:20:08.054Z,24.13
2022-08-24T21:24:10.750Z,24.07
2022-08-24T21:28:15.082Z,23.97
2022-08-24T21:32:35.884Z,23.72
2022-08-24T21:36:39.291Z,23.46
2022-08-24T21:40:41.361Z,23.29
2022-08-24T21:44:44.248Z,23.18
2022-08-24T21:48:47.978Z,23.10
2022-08-24T21:52:51.209Z,22.91
2022-08-24T21:56:55.776Z,22.77
2022-08-24T22:00:59.015Z,22.57
2022-08-24T22:05:01.751Z,22.50
2022-08-24T22:09:04.843Z,22.42
2022-08-24T22:13:07.373Z,22.43
2022-08-24T22:17:10.132Z,22.45
2022-08-24T22:21:17.945Z,22.46
2022-08-24T22:25:20.027Z,22.42
2022-08-24T22:29:22.169Z,22.44
2022-08-24T22:33:25.669Z,22.39
2022-08-24T22:37:27.775Z,22.23
2022-08-24T22:41:30.452Z,22.00
2022-08-24T22:45:34.536Z,21.91
2022-08-24T22:49:39.711Z,21.80
2022-08-24T22:53:41.761Z,21.72
2022-08-24T22:57:43.804Z,21.57
2022-08-24T23:01:49.084Z,21.45
2022-08-24T23:05:51.200Z,21.22
2022-08-24T23:09:53.240Z,21.08
2022-08-24T23:13:57.349Z,21.18
2022-08-24T23:18:19.381Z,21.23
2022-08-24T23:22:21.671Z,21.25
2022-08-24T23:26:24.222Z,21.23
2022-08-24T23:30:26.322Z,21.18
2022-08-24T23:34:29.147Z,21.14
2022-08-24T23:38:32.619Z,21.06
2022-08-24T23:42:34.702Z,20.97
2022-08-24T23:46:37.652Z,20.76
2022-08-24T23:50:46.390Z,20.69
2022-08-24T23:54:49.304Z,20.57
2022-08-24T23:58:53.070Z,20.56
